sensor_id;sensor_type;location;lat;lon;timestamp;P1;durP1;ratioP1;P2;durP2;ratioP2
27428;SDS011;14881;48.092;11.574;2022-09-09T00:01:15;4.93;;;2.28;;
27428;SDS011;14881;48.092;11.574;2022-09-09T00:03:57;2.78;;;2.10;;
27428;SDS011;14881;48.092;11.574;2022-09-09T00:06:30;2.65;;;2.25;;
27428;SDS011;14881;48.092;11.574;2022-09-09T00:09:04;3.75;;;1.80;;
27428;SDS011;14881;48.092;11.574;2022-09-09T00:11:39;3.67;;;1.73;;
27428;SDS011;14881;48.092;11.574;2022-09-09T00:14:12;1.98;;;1.77;;
27428;SDS011;14881;48.092;11.574;2022-09-09T00:16:47;2.65;;;2.00;;
27428;SDS011;14881;48.092;11.574;2022-09-09T00:19:20;3.05;;;1.70;;
27428;SDS011;14881;48.092;11.574;2022-09-09T00:21:54;3.45;;;2.10;;
27428;SDS011;14881;48.092;11.574;2022-09-09T00:24:32;4.30;;;1.73;;
27428;SDS011;14881;48.092;11.574;2022-09-09T00:27:13;3.05;;;2.13;;
27428;SDS011;14881;48.092;11.574;2022-09-09T00:29:51;4.70;;;2.00;;
27428;SDS011;14881;48.092;11.574;2022-09-09T00:32:21;4.50;;;2.17;;
27428;SDS011;14881;48.092;11.574;2022-09-09T00:34:51;1.95;;;1.60;;
27428;SDS011;14881;48.092;11.574;2022-09-09T00:37:23;4.32;;;2.10;;
27428;SDS011;14881;48.092;11.574;2022-09-09T00:39:55;5.47;;;2.17;;
27428;SDS011;14881;48.092;11.574;2022-09-09T00:42:30;2.42;;;2.05;;
27428;SDS011;14881;48.092;11.574;2022-09-09T00:45:09;4.38;;;2.13;;
27428;SDS011;14881;48.092;11.574;2022-09-09T00:47:53;3.83;;;2.30;;
27428;SDS011;14881;48.092;11.574;2022-09-09T00:50:31;3.05;;;2.40;;
27428;SDS011;14881;48.092;11.574;2022-09-09T00:53:11;4.25;;;2.10;;
27428;SDS011;14881;48.092;11.574;2022-09-09T00:55:51;2.58;;;2.03;;
27428;SDS011;14881;48.092;11.574;2022-09-09T00:58:26;2.70;;;1.98;;
27428;SDS011;14881;48.092;11.574;2022-09-09T01:00:56;4.97;;;2.20;;
27428;SDS011;14881;48.092;11.574;2022-09-09T01:03:31;1.92;;;1.80;;
27428;SDS011;14881;48.092;11.574;2022-09-09T01:06:02;7.85;;;2.40;;
27428;SDS011;14881;48.092;11.574;2022-09-09T01:08:46;7.88;;;1.95;;
27428;SDS011;14881;48.092;11.574;2022-09-09T01:11:28;8.32;;;2.10;;
27428;SDS011;14881;48.092;11.574;2022-09-09T01:14:13;3.03;;;2.08;;
27428;SDS011;14881;48.092;11.574;2022-09-09T01:16:50;2.97;;;1.88;;
27428;SDS011;14881;48.092;11.574;2022-09-09T01:19:24;2.60;;;1.98;;
27428;SDS011;14881;48.092;11.574;2022-09-09T01:22:09;6.70;;;2.22;;
27428;SDS011;14881;48.092;11.574;2022-09-09T01:24:46;2.53;;;2.00;;
27428;SDS011;14881;48.092;11.574;2022-09-09T01:27:23;6.45;;;2.30;;
27428;SDS011;14881;48.092;11.574;2022-09-09T01:29:52;4.03;;;1.95;;
27428;SDS011;14881;48.092;11.574;2022-09-09T01:32:37;3.03;;;2.10;;
27428;SDS011;14881;48.092;11.574;2022-09-09T01:35:09;7.45;;;2.50;;
27428;SDS011;14881;48.092;11.574;2022-09-09T01:37:42;4.28;;;2.40;;
27428;SDS011;14881;48.092;11.574;2022-09-09T01:40:09;4.57;;;2.60;;
27428;SDS011;14881;48.092;11.574;2022-09-09T01:42:38;3.42;;;2.40;;
27428;SDS011;14881;48.092;11.574;2022-09-09T01:45:06;3.90;;;2.13;;
27428;SDS011;14881;48.092;11.574;2022-09-09T01:47:35;2.60;;;2.30;;
27428;SDS011;14881;48.092;11.574;2022-09-09T01:50:03;2.30;;;2.10;;
27428;SDS011;14881;48.092;11.574;2022-09-09T01:52:32;4.40;;;1.90;;
27428;SDS011;14881;48.092;11.574;2022-09-09T01:55:05;2.75;;;2.42;;
27428;SDS011;14881;48.092;11.574;2022-09-09T01:57:37;4.40;;;2.00;;
27428;SDS011;14881;48.092;11.574;2022-09-09T02:00:12;1.95;;;1.77;;
27428;SDS011;14881;48.092;11.574;2022-09-09T02:02:44;2.38;;;1.88;;
27428;SDS011;14881;48.092;11.574;2022-09-09T02:05:22;2.22;;;2.03;;
27428;SDS011;14881;48.092;11.574;2022-09-09T02:07:58;4.82;;;2.20;;
27428;SDS011;14881;48.092;11.574;2022-09-09T02:10:30;5.35;;;2.38;;
27428;SDS011;14881;48.092;11.574;2022-09-09T02:13:07;2.95;;;1.90;;
27428;SDS011;14881;48.092;11.574;2022-09-09T02:15:39;2.00;;;1.80;;
27428;SDS011;14881;48.092;11.574;2022-09-09T02:18:12;4.78;;;2.45;;
27428;SDS011;14881;48.092;11.574;2022-09-09T02:20:42;3.60;;;2.53;;
27428;SDS011;14881;48.092;11.574;2022-09-09T02:23:12;4.05;;;2.28;;
27428;SDS011;14881;48.092;11.574;2022-09-09T02:25:42;4.55;;;2.20;;
27428;SDS011;14881;48.092;11.574;2022-09-09T02:28:13;3.47;;;2.30;;
27428;SDS011;14881;48.092;11.574;2022-09-09T02:30:43;4.95;;;2.53;;
27428;SDS011;14881;48.092;11.574;2022-09-09T02:33:14;2.70;;;2.20;;
27428;SDS011;14881;48.092;11.574;2022-09-09T02:35:42;2.72;;;1.92;;
27428;SDS011;14881;48.092;11.574;2022-09-09T02:38:13;2.30;;;2.10;;
27428;SDS011;14881;48.092;11.574;2022-09-09T02:40:42;4.00;;;1.88;;
27428;SDS011;14881;48.092;11.574;2022-09-09T02:43:11;5.55;;;2.15;;
27428;SDS011;14881;48.092;11.574;2022-09-09T02:45:44;3.40;;;2.13;;
27428;SDS011;14881;48.092;11.574;2022-09-09T02:48:20;5.30;;;2.17;;
27428;SDS011;14881;48.092;11.574;2022-09-09T02:53:27;6.38;;;2.30;;
27428;SDS011;14881;48.092;11.574;2022-09-09T02:56:03;6.50;;;2.55;;
27428;SDS011;14881;48.092;11.574;2022-09-09T02:58:34;2.53;;;2.08;;
27428;SDS011;14881;48.092;11.574;2022-09-09T03:01:03;4.72;;;2.35;;
27428;SDS011;14881;48.092;11.574;2022-09-09T03:03:31;4.75;;;2.30;;
27428;SDS011;14881;48.092;11.574;2022-09-09T03:06:00;4.63;;;2.45;;
27428;SDS011;14881;48.092;11.574;2022-09-09T03:08:28;3.03;;;2.00;;
27428;SDS011;14881;48.092;11.574;2022-09-09T03:10:57;4.35;;;2.35;;
27428;SDS011;14881;48.092;11.574;2022-09-09T03:13:27;3.72;;;2.40;;
27428;SDS011;14881;48.092;11.574;2022-09-09T03:15:56;4.40;;;2.25;;
27428;SDS011;14881;48.092;11.574;2022-09-09T03:18:25;7.78;;;2.13;;
27428;SDS011;14881;48.092;11.574;2022-09-09T03:20:54;5.63;;;2.70;;
27428;SDS011;14881;48.092;11.574;2022-09-09T03:23:22;2.13;;;2.03;;
27428;SDS011;14881;48.092;11.574;2022-09-09T03:25:50;7.30;;;2.70;;
27428;SDS011;14881;48.092;11.574;2022-09-09T03:28:18;2.72;;;1.95;;
27428;SDS011;14881;48.092;11.574;2022-09-09T03:30:46;4.05;;;2.10;;
27428;SDS011;14881;48.092;11.574;2022-09-09T03:33:16;2.47;;;2.15;;
27428;SDS011;14881;48.092;11.574;2022-09-09T03:35:45;2.83;;;2.03;;
27428;SDS011;14881;48.092;11.574;2022-09-09T03:38:14;4.40;;;2.40;;
27428;SDS011;14881;48.092;11.574;2022-09-09T03:40:48;7.28;;;2.25;;
27428;SDS011;14881;48.092;11.574;2022-09-09T03:43:16;4.88;;;1.67;;
27428;SDS011;14881;48.092;11.574;2022-09-09T03:45:45;5.90;;;2.10;;
27428;SDS011;14881;48.092;11.574;2022-09-09T03:48:13;3.72;;;2.42;;
27428;SDS011;14881;48.092;11.574;2022-09-09T03:50:45;5.90;;;2.72;;
27428;SDS011;14881;48.092;11.574;2022-09-09T03:53:16;3.58;;;2.60;;
27428;SDS011;14881;48.092;11.574;2022-09-09T03:55:45;3.25;;;2.20;;
27428;SDS011;14881;48.092;11.574;2022-09-09T03:58:13;4.10;;;2.20;;
27428;SDS011;14881;48.092;11.574;2022-09-09T04:00:41;3.85;;;2.55;;
27428;SDS011;14881;48.092;11.574;2022-09-09T04:03:12;2.65;;;2.15;;
27428;SDS011;14881;48.092;11.574;2022-09-09T04:05:41;7.53;;;2.53;;
27428;SDS011;14881;48.092;11.574;2022-09-09T04:08:10;3.72;;;2.15;;
27428;SDS011;14881;48.092;11.574;2022-09-09T04:10:38;2.97;;;2.42;;
27428;SDS011;14881;48.092;11.574;2022-09-09T04:13:06;4.35;;;2.40;;
27428;SDS011;14881;48.092;11.574;2022-09-09T04:15:33;4.65;;;2.40;;
27428;SDS011;14881;48.092;11.574;2022-09-09T04:18:02;4.07;;;2.50;;
27428;SDS011;14881;48.092;11.574;2022-09-09T04:23:28;4.70;;;2.35;;
27428;SDS011;14881;48.092;11.574;2022-09-09T04:25:56;4.05;;;2.45;;
27428;SDS011;14881;48.092;11.574;2022-09-09T04:28:26;2.97;;;2.28;;
27428;SDS011;14881;48.092;11.574;2022-09-09T04:30:56;5.47;;;2.40;;
27428;SDS011;14881;48.092;11.574;2022-09-09T04:33:24;3.08;;;2.40;;
27428;SDS011;14881;48.092;11.574;2022-09-09T04:35:56;4.55;;;2.33;;
27428;SDS011;14881;48.092;11.574;2022-09-09T04:38:23;2.28;;;2.00;;
27428;SDS011;14881;48.092;11.574;2022-09-09T04:41:00;6.03;;;2.38;;
27428;SDS011;14881;48.092;11.574;2022-09-09T04:43:28;5.38;;;2.53;;
27428;SDS011;14881;48.092;11.574;2022-09-09T04:45:57;2.60;;;2.20;;
27428;SDS011;14881;48.092;11.574;2022-09-09T04:48:25;3.38;;;2.58;;
27428;SDS011;14881;48.092;11.574;2022-09-09T04:50:54;3.67;;;2.20;;
27428;SDS011;14881;48.092;11.574;2022-09-09T04:53:23;2.75;;;2.38;;
27428;SDS011;14881;48.092;11.574;2022-09-09T04:55:51;2.95;;;2.20;;
27428;SDS011;14881;48.092;11.574;2022-09-09T04:58:23;2.83;;;2.50;;
27428;SDS011;14881;48.092;11.574;2022-09-09T05:00:51;3.85;;;2.03;;
27428;SDS011;14881;48.092;11.574;2022-09-09T05:03:18;4.18;;;2.58;;
27428;SDS011;14881;48.092;11.574;2022-09-09T05:05:46;3.85;;;1.98;;
27428;SDS011;14881;48.092;11.574;2022-09-09T05:08:14;3.50;;;2.22;;
27428;SDS011;14881;48.092;11.574;2022-09-09T05:10:42;3.83;;;2.10;;
27428;SDS011;14881;48.092;11.574;2022-09-09T05:13:10;3.88;;;2.50;;
27428;SDS011;14881;48.092;11.574;2022-09-09T05:15:39;2.40;;;2.20;;
27428;SDS011;14881;48.092;11.574;2022-09-09T05:18:07;4.72;;;2.25;;
27428;SDS011;14881;48.092;11.574;2022-09-09T05:20:34;2.92;;;2.33;;
27428;SDS011;14881;48.092;11.574;2022-09-09T05:23:02;6.30;;;2.55;;
27428;SDS011;14881;48.092;11.574;2022-09-09T05:25:30;2.13;;;2.03;;
27428;SDS011;14881;48.092;11.574;2022-09-09T05:27:58;4.20;;;2.40;;
27428;SDS011;14881;48.092;11.574;2022-09-09T05:30:25;4.47;;;2.35;;
27428;SDS011;14881;48.092;11.574;2022-09-09T05:32:56;4.32;;;2.08;;
27428;SDS011;14881;48.092;11.574;2022-09-09T05:35:24;3.25;;;2.00;;
27428;SDS011;14881;48.092;11.574;2022-09-09T05:37:52;1.90;;;1.70;;
27428;SDS011;14881;48.092;11.574;2022-09-09T05:40:19;4.57;;;2.28;;
27428;SDS011;14881;48.092;11.574;2022-09-09T05:42:48;4.07;;;2.42;;
27428;SDS011;14881;48.092;11.574;2022-09-09T05:45:19;3.83;;;2.00;;
27428;SDS011;14881;48.092;11.574;2022-09-09T05:47:50;2.47;;;1.92;;
27428;SDS011;14881;48.092;11.574;2022-09-09T05:50:21;4.63;;;2.17;;
27428;SDS011;14881;48.092;11.574;2022-09-09T05:52:49;3.60;;;2.10;;
27428;SDS011;14881;48.092;11.574;2022-09-09T05:55:16;2.55;;;2.03;;
27428;SDS011;14881;48.092;11.574;2022-09-09T05:57:47;4.28;;;2.10;;
27428;SDS011;14881;48.092;11.574;2022-09-09T06:00:16;3.90;;;1.75;;
27428;SDS011;14881;48.092;11.574;2022-09-09T06:02:44;3.83;;;2.00;;
27428;SDS011;14881;48.092;11.574;2022-09-09T06:05:18;6.53;;;2.30;;
27428;SDS011;14881;48.092;11.574;2022-09-09T06:07:53;2.00;;;1.90;;
27428;SDS011;14881;48.092;11.574;2022-09-09T06:10:21;3.20;;;1.80;;
27428;SDS011;14881;48.092;11.574;2022-09-09T06:12:52;2.22;;;1.70;;
27428;SDS011;14881;48.092;11.574;2022-09-09T06:15:20;4.90;;;1.90;;
27428;SDS011;14881;48.092;11.574;2022-09-09T06:17:53;10.73;;;5.45;;
27428;SDS011;14881;48.092;11.574;2022-09-09T06:20:21;2.70;;;1.52;;
27428;SDS011;14881;48.092;11.574;2022-09-09T06:22:49;3.22;;;1.60;;
27428;SDS011;14881;48.092;11.574;2022-09-09T06:25:18;3.08;;;1.63;;
27428;SDS011;14881;48.092;11.574;2022-09-09T06:27:48;2.42;;;1.55;;
27428;SDS011;14881;48.092;11.574;2022-09-09T06:30:16;2.72;;;1.55;;
27428;SDS011;14881;48.092;11.574;2022-09-09T06:32:44;2.30;;;1.70;;
27428;SDS011;14881;48.092;11.574;2022-09-09T06:35:12;1.60;;;1.50;;
27428;SDS011;14881;48.092;11.574;2022-09-09T06:37:44;1.80;;;1.70;;
27428;SDS011;14881;48.092;11.574;2022-09-09T06:40:12;5.00;;;1.42;;
27428;SDS011;14881;48.092;11.574;2022-09-09T06:42:41;7.32;;;1.80;;
27428;SDS011;14881;48.092;11.574;2022-09-09T06:45:09;2.78;;;1.63;;
27428;SDS011;14881;48.092;11.574;2022-09-09T06:47:38;4.35;;;1.50;;
27428;SDS011;14881;48.092;11.574;2022-09-09T06:50:06;1.67;;;1.40;;
27428;SDS011;14881;48.092;11.574;2022-09-09T06:52:34;1.70;;;1.20;;
27428;SDS011;14881;48.092;11.574;2022-09-09T06:55:02;3.25;;;1.40;;
27428;SDS011;14881;48.092;11.574;2022-09-09T06:57:31;1.60;;;1.50;;
27428;SDS011;14881;48.092;11.574;2022-09-09T07:00:05;2.35;;;1.67;;
27428;SDS011;14881;48.092;11.574;2022-09-09T07:02:33;1.52;;;1.40;;
27428;SDS011;14881;48.092;11.574;2022-09-09T07:05:05;2.05;;;1.30;;
27428;SDS011;14881;48.092;11.574;2022-09-09T07:07:34;2.70;;;1.55;;
27428;SDS011;14881;48.092;11.574;2022-09-09T07:10:03;3.95;;;1.20;;
27428;SDS011;14881;48.092;11.574;2022-09-09T07:12:31;3.28;;;1.48;;
27428;SDS011;14881;48.092;11.574;2022-09-09T07:14:59;2.17;;;1.40;;
27428;SDS011;14881;48.092;11.574;2022-09-09T07:17:28;1.70;;;1.60;;
27428;SDS011;14881;48.092;11.574;2022-09-09T07:19:56;2.10;;;1.30;;
27428;SDS011;14881;48.092;11.574;2022-09-09T07:22:24;2.05;;;1.13;;
27428;SDS011;14881;48.092;11.574;2022-09-09T07:24:51;1.77;;;1.10;;
27428;SDS011;14881;48.092;11.574;2022-09-09T07:27:19;3.53;;;1.52;;
27428;SDS011;14881;48.092;11.574;2022-09-09T07:29:47;12.25;;;6.70;;
27428;SDS011;14881;48.092;11.574;2022-09-09T07:32:15;10.60;;;4.30;;
27428;SDS011;14881;48.092;11.574;2022-09-09T07:34:44;2.00;;;1.50;;
27428;SDS011;14881;48.092;11.574;2022-09-09T07:37:12;2.90;;;1.55;;
27428;SDS011;14881;48.092;11.574;2022-09-09T07:39:40;2.10;;;1.33;;
27428;SDS011;14881;48.092;11.574;2022-09-09T07:42:08;1.52;;;1.38;;
27428;SDS011;14881;48.092;11.574;2022-09-09T07:44:37;1.52;;;1.42;;
27428;SDS011;14881;48.092;11.574;2022-09-09T07:47:05;2.22;;;1.45;;
27428;SDS011;14881;48.092;11.574;2022-09-09T07:49:33;2.78;;;1.40;;
27428;SDS011;14881;48.092;11.574;2022-09-09T07:52:02;4.22;;;1.27;;
27428;SDS011;14881;48.092;11.574;2022-09-09T07:54:35;4.35;;;1.80;;
27428;SDS011;14881;48.092;11.574;2022-09-09T07:57:03;3.10;;;1.30;;
27428;SDS011;14881;48.092;11.574;2022-09-09T07:59:31;1.40;;;1.30;;
27428;SDS011;14881;48.092;11.574;2022-09-09T08:01:59;2.72;;;1.23;;
27428;SDS011;14881;48.092;11.574;2022-09-09T08:04:28;7.15;;;1.40;;
27428;SDS011;14881;48.092;11.574;2022-09-09T08:06:57;1.73;;;1.30;;
27428;SDS011;14881;48.092;11.574;2022-09-09T08:09:27;6.50;;;1.58;;
27428;SDS011;14881;48.092;11.574;2022-09-09T08:11:56;2.70;;;1.17;;
27428;SDS011;14881;48.092;11.574;2022-09-09T08:14:24;2.95;;;1.70;;
27428;SDS011;14881;48.092;11.574;2022-09-09T08:16:52;1.67;;;1.02;;
27428;SDS011;14881;48.092;11.574;2022-09-09T08:19:20;2.30;;;1.35;;
27428;SDS011;14881;48.092;11.574;2022-09-09T08:21:49;4.80;;;1.27;;
27428;SDS011;14881;48.092;11.574;2022-09-09T08:24:17;1.42;;;1.27;;
27428;SDS011;14881;48.092;11.574;2022-09-09T08:26:47;4.82;;;1.60;;
27428;SDS011;14881;48.092;11.574;2022-09-09T08:29:16;3.10;;;1.55;;
27428;SDS011;14881;48.092;11.574;2022-09-09T08:31:44;3.65;;;1.20;;
27428;SDS011;14881;48.092;11.574;2022-09-09T08:34:14;1.40;;;1.30;;
27428;SDS011;14881;48.092;11.574;2022-09-09T08:36:42;1.50;;;1.23;;
27428;SDS011;14881;48.092;11.574;2022-09-09T08:39:12;2.15;;;1.42;;
27428;SDS011;14881;48.092;11.574;2022-09-09T08:44:58;2.42;;;1.35;;
27428;SDS011;14881;48.092;11.574;2022-09-09T08:47:35;4.15;;;1.40;;
27428;SDS011;14881;48.092;11.574;2022-09-09T08:50:16;2.30;;;1.50;;
27428;SDS011;14881;48.092;11.574;2022-09-09T08:52:55;4.35;;;1.40;;
27428;SDS011;14881;48.092;11.574;2022-09-09T08:55:35;4.55;;;1.60;;
27428;SDS011;14881;48.092;11.574;2022-09-09T08:58:11;2.58;;;1.35;;
27428;SDS011;14881;48.092;11.574;2022-09-09T09:00:44;3.50;;;1.80;;
27428;SDS011;14881;48.092;11.574;2022-09-09T09:03:28;1.80;;;1.63;;
27428;SDS011;14881;48.092;11.574;2022-09-09T09:06:04;5.22;;;1.80;;
27428;SDS011;14881;48.092;11.574;2022-09-09T09:08:43;4.20;;;1.65;;
27428;SDS011;14881;48.092;11.574;2022-09-09T09:11:15;1.95;;;1.75;;
27428;SDS011;14881;48.092;11.574;2022-09-09T09:13:44;10.98;;;1.88;;
27428;SDS011;14881;48.092;11.574;2022-09-09T09:16:20;2.63;;;1.50;;
27428;SDS011;14881;48.092;11.574;2022-09-09T09:18:54;2.17;;;1.40;;
27428;SDS011;14881;48.092;11.574;2022-09-09T09:21:25;3.05;;;1.77;;
27428;SDS011;14881;48.092;11.574;2022-09-09T09:23:59;2.80;;;1.67;;
27428;SDS011;14881;48.092;11.574;2022-09-09T09:26:30;3.42;;;1.55;;
27428;SDS011;14881;48.092;11.574;2022-09-09T09:29:03;2.67;;;1.40;;
27428;SDS011;14881;48.092;11.574;2022-09-09T09:31:38;6.13;;;1.63;;
27428;SDS011;14881;48.092;11.574;2022-09-09T09:34:09;4.53;;;1.70;;
27428;SDS011;14881;48.092;11.574;2022-09-09T09:36:38;3.08;;;1.30;;
27428;SDS011;14881;48.092;11.574;2022-09-09T09:39:08;1.58;;;1.48;;
27428;SDS011;14881;48.092;11.574;2022-09-09T09:41:56;2.78;;;1.50;;
27428;SDS011;14881;48.092;11.574;2022-09-09T09:44:33;4.65;;;1.50;;
27428;SDS011;14881;48.092;11.574;2022-09-09T09:47:06;2.30;;;1.20;;
27428;SDS011;14881;48.092;11.574;2022-09-09T09:49:35;3.95;;;1.40;;
27428;SDS011;14881;48.092;11.574;2022-09-09T09:52:04;2.03;;;1.73;;
27428;SDS011;14881;48.092;11.574;2022-09-09T09:54:34;1.40;;;1.30;;
27428;SDS011;14881;48.092;11.574;2022-09-09T09:57:09;3.60;;;1.20;;
27428;SDS011;14881;48.092;11.574;2022-09-09T09:59:39;1.98;;;1.23;;
27428;SDS011;14881;48.092;11.574;2022-09-09T10:02:14;1.92;;;1.20;;
27428;SDS011;14881;48.092;11.574;2022-09-09T10:04:44;1.45;;;1.20;;
27428;SDS011;14881;48.092;11.574;2022-09-09T10:07:15;3.80;;;1.30;;
27428;SDS011;14881;48.092;11.574;2022-09-09T10:09:46;4.30;;;1.40;;
27428;SDS011;14881;48.092;11.574;2022-09-09T10:12:24;4.10;;;1.13;;
27428;SDS011;14881;48.092;11.574;2022-09-09T10:15:18;6.82;;;1.60;;
27428;SDS011;14881;48.092;11.574;2022-09-09T10:17:57;1.92;;;1.25;;
27428;SDS011;14881;48.092;11.574;2022-09-09T10:20:34;1.98;;;1.30;;
27428;SDS011;14881;48.092;11.574;2022-09-09T10:23:13;1.85;;;1.30;;
27428;SDS011;14881;48.092;11.574;2022-09-09T10:25:56;1.45;;;1.35;;
27428;SDS011;14881;48.092;11.574;2022-09-09T10:28:42;3.80;;;1.48;;
27428;SDS011;14881;48.092;11.574;2022-09-09T10:31:27;2.15;;;1.52;;
27428;SDS011;14881;48.092;11.574;2022-09-09T10:34:06;1.58;;;1.23;;
27428;SDS011;14881;48.092;11.574;2022-09-09T10:36:47;1.33;;;1.23;;
27428;SDS011;14881;48.092;11.574;2022-09-09T10:39:19;1.65;;;1.33;;
27428;SDS011;14881;48.092;11.574;2022-09-09T10:42:00;1.80;;;1.20;;
27428;SDS011;14881;48.092;11.574;2022-09-09T10:44:39;2.67;;;1.35;;
27428;SDS011;14881;48.092;11.574;2022-09-09T10:47:35;1.58;;;1.48;;
27428;SDS011;14881;48.092;11.574;2022-09-09T10:50:21;3.35;;;1.70;;
27428;SDS011;14881;48.092;11.574;2022-09-09T10:53:27;3.80;;;1.30;;
27428;SDS011;14881;48.092;11.574;2022-09-09T10:56:05;1.70;;;1.25;;
27428;SDS011;14881;48.092;11.574;2022-09-09T10:58:36;1.23;;;1.13;;
27428;SDS011;14881;48.092;11.574;2022-09-09T11:01:10;1.63;;;1.30;;
27428;SDS011;14881;48.092;11.574;2022-09-09T11:03:44;1.13;;;1.10;;
27428;SDS011;14881;48.092;11.574;2022-09-09T11:06:19;7.93;;;1.10;;
27428;SDS011;14881;48.092;11.574;2022-09-09T11:08:51;3.25;;;0.90;;
27428;SDS011;14881;48.092;11.574;2022-09-09T11:11:25;3.65;;;1.05;;
27428;SDS011;14881;48.092;11.574;2022-09-09T11:13:57;1.98;;;1.30;;
27428;SDS011;14881;48.092;11.574;2022-09-09T11:16:29;2.88;;;1.10;;
27428;SDS011;14881;48.092;11.574;2022-09-09T11:19:03;3.88;;;1.13;;
27428;SDS011;14881;48.092;11.574;2022-09-09T11:21:40;1.80;;;1.17;;
27428;SDS011;14881;48.092;11.574;2022-09-09T11:24:14;3.53;;;1.63;;
27428;SDS011;14881;48.092;11.574;2022-09-09T11:26:46;2.65;;;1.00;;
27428;SDS011;14881;48.092;11.574;2022-09-09T11:29:26;1.83;;;0.77;;
27428;SDS011;14881;48.092;11.574;2022-09-09T11:34:56;1.27;;;0.70;;
27428;SDS011;14881;48.092;11.574;2022-09-09T11:37:55;2.28;;;0.80;;
27428;SDS011;14881;48.092;11.574;2022-09-09T11:40:33;1.25;;;0.80;;
27428;SDS011;14881;48.092;11.574;2022-09-09T11:43:01;1.33;;;0.63;;
27428;SDS011;14881;48.092;11.574;2022-09-09T11:45:32;3.95;;;2.85;;
27428;SDS011;14881;48.092;11.574;2022-09-09T11:48:05;1.77;;;0.90;;
27428;SDS011;14881;48.092;11.574;2022-09-09T11:50:58;1.10;;;0.70;;
27428;SDS011;14881;48.092;11.574;2022-09-09T11:53:28;1.92;;;0.98;;
27428;SDS011;14881;48.092;11.574;2022-09-09T11:56:00;1.00;;;0.90;;
27428;SDS011;14881;48.092;11.574;2022-09-09T11:58:32;1.00;;;0.73;;
27428;SDS011;14881;48.092;11.574;2022-09-09T12:01:13;2.25;;;0.80;;
27428;SDS011;14881;48.092;11.574;2022-09-09T12:03:43;1.20;;;0.60;;
27428;SDS011;14881;48.092;11.574;2022-09-09T12:06:18;2.95;;;0.77;;
27428;SDS011;14881;48.092;11.574;2022-09-09T12:08:53;2.13;;;0.52;;
27428;SDS011;14881;48.092;11.574;2022-09-09T12:11:26;3.85;;;0.75;;
27428;SDS011;14881;48.092;11.574;2022-09-09T12:13:56;2.13;;;0.60;;
27428;SDS011;14881;48.092;11.574;2022-09-09T12:16:27;2.15;;;1.35;;
27428;SDS011;14881;48.092;11.574;2022-09-09T12:19:05;1.73;;;0.90;;
27428;SDS011;14881;48.092;11.574;2022-09-09T12:21:36;2.17;;;0.80;;
27428;SDS011;14881;48.092;11.574;2022-09-09T12:24:10;1.75;;;0.55;;
27428;SDS011;14881;48.092;11.574;2022-09-09T12:26:41;2.22;;;0.90;;
27428;SDS011;14881;48.092;11.574;2022-09-09T12:29:21;1.50;;;0.93;;
27428;SDS011;14881;48.092;11.574;2022-09-09T12:31:56;1.65;;;0.77;;
27428;SDS011;14881;48.092;11.574;2022-09-09T12:34:34;0.68;;;0.68;;
27428;SDS011;14881;48.092;11.574;2022-09-09T12:37:11;0.95;;;0.43;;
27428;SDS011;14881;48.092;11.574;2022-09-09T12:39:46;1.55;;;0.80;;
27428;SDS011;14881;48.092;11.574;2022-09-09T12:42:19;2.85;;;0.80;;
27428;SDS011;14881;48.092;11.574;2022-09-09T12:44:51;3.35;;;0.77;;
27428;SDS011;14881;48.092;11.574;2022-09-09T12:47:20;1.05;;;0.60;;
27428;SDS011;14881;48.092;11.574;2022-09-09T12:52:28;7.07;;;4.72;;
27428;SDS011;14881;48.092;11.574;2022-09-09T12:55:00;1.23;;;0.70;;
27428;SDS011;14881;48.092;11.574;2022-09-09T12:57:33;1.15;;;0.60;;
27428;SDS011;14881;48.092;11.574;2022-09-09T13:00:04;2.38;;;1.05;;
27428;SDS011;14881;48.092;11.574;2022-09-09T13:02:36;2.28;;;0.70;;
27428;SDS011;14881;48.092;11.574;2022-09-09T13:05:18;3.95;;;1.10;;
27428;SDS011;14881;48.092;11.574;2022-09-09T13:07:49;1.80;;;1.00;;
27428;SDS011;14881;48.092;11.574;2022-09-09T13:10:20;1.00;;;0.75;;
27428;SDS011;14881;48.092;11.574;2022-09-09T13:13:12;2.20;;;0.85;;
27428;SDS011;14881;48.092;11.574;2022-09-09T13:15:47;2.00;;;0.80;;
27428;SDS011;14881;48.092;11.574;2022-09-09T13:18:18;1.13;;;0.80;;
27428;SDS011;14881;48.092;11.574;2022-09-09T13:20:50;0.90;;;0.80;;
27428;SDS011;14881;48.092;11.574;2022-09-09T13:23:20;0.70;;;0.55;;
27428;SDS011;14881;48.092;11.574;2022-09-09T13:25:52;1.17;;;0.70;;
27428;SDS011;14881;48.092;11.574;2022-09-09T13:28:22;1.23;;;0.73;;
27428;SDS011;14881;48.092;11.574;2022-09-09T13:30:57;2.13;;;0.80;;
27428;SDS011;14881;48.092;11.574;2022-09-09T13:33:30;1.40;;;0.90;;
27428;SDS011;14881;48.092;11.574;2022-09-09T13:36:00;1.75;;;0.73;;
27428;SDS011;14881;48.092;11.574;2022-09-09T13:38:33;0.77;;;0.50;;
27428;SDS011;14881;48.092;11.574;2022-09-09T13:41:04;2.10;;;0.70;;
27428;SDS011;14881;48.092;11.574;2022-09-09T13:43:35;1.40;;;0.80;;
27428;SDS011;14881;48.092;11.574;2022-09-09T13:46:05;1.05;;;0.55;;
27428;SDS011;14881;48.092;11.574;2022-09-09T13:48:55;1.73;;;0.70;;
27428;SDS011;14881;48.092;11.574;2022-09-09T13:51:28;4.40;;;1.30;;
27428;SDS011;14881;48.092;11.574;2022-09-09T13:54:08;2.15;;;0.85;;
27428;SDS011;14881;48.092;11.574;2022-09-09T13:56:44;0.98;;;0.85;;
27428;SDS011;14881;48.092;11.574;2022-09-09T13:59:14;2.05;;;0.63;;
27428;SDS011;14881;48.092;11.574;2022-09-09T14:01:43;0.80;;;0.77;;
27428;SDS011;14881;48.092;11.574;2022-09-09T14:04:10;2.97;;;0.70;;
27428;SDS011;14881;48.092;11.574;2022-09-09T14:06:38;2.05;;;0.77;;
27428;SDS011;14881;48.092;11.574;2022-09-09T14:09:10;1.38;;;0.65;;
27428;SDS011;14881;48.092;11.574;2022-09-09T14:14:10;1.63;;;0.90;;
27428;SDS011;14881;48.092;11.574;2022-09-09T14:16:38;1.25;;;0.70;;
27428;SDS011;14881;48.092;11.574;2022-09-09T14:19:07;2.42;;;0.60;;
27428;SDS011;14881;48.092;11.574;2022-09-09T14:21:35;4.03;;;0.90;;
27428;SDS011;14881;48.092;11.574;2022-09-09T14:24:04;1.77;;;0.80;;
27428;SDS011;14881;48.092;11.574;2022-09-09T14:26:33;2.03;;;0.80;;
27428;SDS011;14881;48.092;11.574;2022-09-09T14:29:01;1.20;;;0.85;;
27428;SDS011;14881;48.092;11.574;2022-09-09T14:31:29;2.75;;;0.82;;
27428;SDS011;14881;48.092;11.574;2022-09-09T14:33:57;1.60;;;0.65;;
27428;SDS011;14881;48.092;11.574;2022-09-09T14:36:25;1.92;;;0.82;;
27428;SDS011;14881;48.092;11.574;2022-09-09T14:38:52;2.60;;;0.80;;
27428;SDS011;14881;48.092;11.574;2022-09-09T14:41:20;0.95;;;0.70;;
27428;SDS011;14881;48.092;11.574;2022-09-09T14:43:50;1.52;;;0.70;;
27428;SDS011;14881;48.092;11.574;2022-09-09T14:46:18;3.92;;;1.15;;
27428;SDS011;14881;48.092;11.574;2022-09-09T14:48:47;1.85;;;0.82;;
27428;SDS011;14881;48.092;11.574;2022-09-09T14:51:18;2.45;;;0.80;;
27428;SDS011;14881;48.092;11.574;2022-09-09T14:53:50;2.17;;;1.08;;
27428;SDS011;14881;48.092;11.574;2022-09-09T14:56:19;1.13;;;0.82;;
27428;SDS011;14881;48.092;11.574;2022-09-09T14:58:50;3.35;;;0.80;;
27428;SDS011;14881;48.092;11.574;2022-09-09T15:01:21;1.10;;;0.90;;
27428;SDS011;14881;48.092;11.574;2022-09-09T15:03:51;0.90;;;0.77;;
27428;SDS011;14881;48.092;11.574;2022-09-09T15:06:21;3.35;;;1.10;;
27428;SDS011;14881;48.092;11.574;2022-09-09T15:08:50;2.15;;;1.00;;
27428;SDS011;14881;48.092;11.574;2022-09-09T15:11:20;2.95;;;1.13;;
27428;SDS011;14881;48.092;11.574;2022-09-09T15:13:52;2.83;;;0.95;;
27428;SDS011;14881;48.092;11.574;2022-09-09T15:16:21;1.92;;;0.85;;
27428;SDS011;14881;48.092;11.574;2022-09-09T15:18:54;2.35;;;0.90;;